createdAt,value
2023-01-21T00:00:45.668Z,99743.78
2023-01-21T00:03:13.022Z,99743.78
2023-01-21T00:05:39.981Z,99740.16
2023-01-21T00:08:06.610Z,99747.84
2023-01-21T00:10:33.631Z,99742.53
2023-01-21T00:13:00.185Z,99748.78
2023-01-21T00:15:26.831Z,99747.16
2023-01-21T00:17:54.080Z,99754.25
2023-01-21T00:20:20.722Z,99761.59
2023-01-21T00:22:47.352Z,99762.97
2023-01-21T00:25:13.896Z,99761.75
2023-01-21T00:27:41.095Z,99768.75
2023-01-21T00:30:08.586Z,99771.53
2023-01-21T00:32:35.151Z,99765.44
2023-01-21T00:35:01.715Z,99770.50
2023-01-21T00:37:28.253Z,99764.59
2023-01-21T00:39:54.780Z,99766.97
2023-01-21T00:42:21.338Z,99760.56
2023-01-21T00:44:47.911Z,99766.91
2023-01-21T00:47:14.499Z,99764.25
2023-01-21T00:49:42.190Z,99757.41
2023-01-21T00:52:08.807Z,99764.69
2023-01-21T00:54:35.352Z,99762.13
2023-01-21T00:57:01.946Z,99759.66
2023-01-21T00:59:28.718Z,99766.91
2023-01-21T01:01:55.274Z,99751.00
2023-01-21T01:04:22.987Z,99750.69
2023-01-21T01:06:49.918Z,99754.16
2023-01-21T01:09:16.695Z,99764.75
2023-01-21T01:11:43.481Z,99762.13
2023-01-21T01:14:10.034Z,99771.88
2023-01-21T01:16:36.622Z,99774.59
2023-01-21T01:19:03.446Z,99773.75
2023-01-21T01:21:30.239Z,99779.97
2023-01-21T01:24:00.641Z,99778.19
2023-01-21T01:26:27.490Z,99778.19
2023-01-21T01:28:54.056Z,99776.38
2023-01-21T01:31:21.837Z,99769.38
2023-01-21T01:33:48.739Z,99764.09
2023-01-21T01:36:18.052Z,99764.75
2023-01-21T01:38:45.340Z,99763.81
2023-01-21T01:41:24.385Z,99764.41
2023-01-21T01:43:55.808Z,99766.03
2023-01-21T01:46:23.693Z,99760.66
2023-01-21T01:48:57.430Z,99759.03
2023-01-21T01:51:32.935Z,99763.66
2023-01-21T01:54:00.450Z,99762.03
2023-01-21T01:56:29.227Z,99767.34
2023-01-21T01:58:56.168Z,99762.97
2023-01-21T02:01:23.442Z,99752.56
2023-01-21T02:03:59.275Z,99745.72
2023-01-21T02:06:26.624Z,99750.25
2023-01-21T02:08:53.799Z,99751.22
2023-01-21T02:11:20.706Z,99748.56
2023-01-21T02:13:53.256Z,99755.56
2023-01-21T02:16:46.186Z,99742.31
2023-01-21T02:19:18.786Z,99743.19
2023-01-21T02:22:02.075Z,99749.16
2023-01-21T02:24:53.055Z,99759.75
2023-01-21T02:27:48.961Z,99755.28
2023-01-21T02:30:36.615Z,99751.78
2023-01-21T02:33:41.292Z,99760.56
2023-01-21T02:36:44.498Z,99760.69
2023-01-21T02:39:35.714Z,99757.94
2023-01-21T02:42:22.326Z,99766.81
2023-01-21T02:45:06.399Z,99767.84
2023-01-21T02:47:40.679Z,99764.38
2023-01-21T02:50:17.696Z,99753.66
2023-01-21T02:52:44.372Z,99755.41
2023-01-21T02:55:16.679Z,99757.09
2023-01-21T02:57:48.750Z,99751.78
2023-01-21T03:00:33.403Z,99749.06
2023-01-21T03:03:18.233Z,99743.06
2023-01-21T03:05:57.131Z,99736.84
2023-01-21T03:08:32.721Z,99742.03
2023-01-21T03:11:17.033Z,99744.69
2023-01-21T03:14:13.369Z,99746.50
2023-01-21T03:17:00.260Z,99751.72
2023-01-21T03:19:42.973Z,99756.91
2023-01-21T03:22:15.085Z,99765.03
2023-01-21T03:24:45.356Z,99769.38
2023-01-21T03:27:15.069Z,99770.50
2023-01-21T03:29:43.723Z,99773.94
2023-01-21T03:32:15.524Z,99771.28
2023-01-21T03:34:48.261Z,99774.84
2023-01-21T03:37:17.943Z,99779.22
2023-01-21T03:39:44.579Z,99785.44
2023-01-21T03:42:12.739Z,99794.25
2023-01-21T03:44:40.154Z,99803.16
2023-01-21T03:47:29.564Z,99803.06
2023-01-21T03:50:01.286Z,99803.16
2023-01-21T03:52:28.627Z,99800.50
2023-01-21T03:54:55.354Z,99803.16
2023-01-21T03:57:22.048Z,99797.00
2023-01-21T03:59:48.721Z,99805.72
2023-01-21T04:02:20.311Z,99809.28
2023-01-21T04:04:47.682Z,99811.38
2023-01-21T04:07:17.015Z,99822.03
2023-01-21T04:09:43.650Z,99827.16
2023-01-21T04:12:10.663Z,99833.31
2023-01-21T04:14:37.463Z,99831.69
2023-01-21T04:17:04.847Z,99826.47
2023-01-21T04:19:31.597Z,99828.34
2023-01-21T04:21:58.299Z,99832.91
2023-01-21T04:24:25.251Z,99841.00
2023-01-21T04:26:51.944Z,99835.78
2023-01-21T04:29:19.012Z,99835.09
2023-01-21T04:31:45.716Z,99828.97
2023-01-21T04:34:12.418Z,99840.47
2023-01-21T04:36:39.103Z,99841.50
2023-01-21T04:39:05.926Z,99859.34
2023-01-21T04:41:32.478Z,99853.22
2023-01-21T04:43:59.051Z,99865.84
2023-01-21T04:46:25.643Z,99863.13
2023-01-21T04:48:52.216Z,99862.31
2023-01-21T04:51:18.898Z,99856.09
2023-01-21T04:53:45.544Z,99858.59
2023-01-21T04:56:12.153Z,99856.63
2023-01-21T04:58:38.727Z,99868.16
2023-01-21T05:01:05.488Z,99866.34
2023-01-21T05:03:32.099Z,99874.28
2023-01-21T05:05:58.911Z,99873.72
2023-01-21T05:08:25.557Z,99880.84
2023-01-21T05:10:52.229Z,99881.81
2023-01-21T05:13:18.756Z,99885.41
2023-01-21T05:15:45.338Z,99881.03
2023-01-21T05:18:11.951Z,99883.69
2023-01-21T05:20:38.472Z,99885.47
2023-01-21T05:23:05.053Z,99882.81
2023-01-21T05:25:31.640Z,99886.41
2023-01-21T05:27:58.327Z,99893.41
2023-01-21T05:30:25.031Z,99906.56
2023-01-21T05:32:55.266Z,99899.38
2023-01-21T05:35:23.476Z,99899.38
2023-01-21T05:37:50.210Z,99892.47
2023-01-21T05:40:17.947Z,99894.16
2023-01-21T05:42:45.903Z,99907.41
2023-01-21T05:45:12.491Z,99917.09
2023-01-21T05:47:39.283Z,99917.91
2023-01-21T05:50:06.466Z,99916.81
2023-01-21T05:52:33.004Z,99914.88
2023-01-21T05:55:02.239Z,99918.38
2023-01-21T05:57:29.645Z,99926.31
2023-01-21T05:59:56.510Z,99917.78
2023-01-21T06:02:23.146Z,99936.03
2023-01-21T06:04:49.736Z,99952.69
2023-01-21T06:07:16.511Z,99942.09
2023-01-21T06:09:43.173Z,99945.63
2023-01-21T06:12:09.707Z,99936.66
2023-01-21T06:14:36.263Z,99935.72
2023-01-21T06:17:02.840Z,99933.06
2023-01-21T06:19:29.420Z,99941.78
2023-01-21T06:21:55.944Z,99943.41
2023-01-21T06:24:22.629Z,99948.69
2023-01-21T06:26:49.231Z,99952.06
2023-01-21T06:29:15.861Z,99958.97
2023-01-21T06:31:42.509Z,99967.63
2023-01-21T06:34:12.610Z,99973.69
2023-01-21T06:36:40.906Z,99971.72
2023-01-21T06:39:09.529Z,99975.22
2023-01-21T06:41:36.086Z,99977.78
2023-01-21T06:44:03.565Z,99971.38
2023-01-21T06:46:30.272Z,99966.84
2023-01-21T06:48:56.903Z,99965.81
2023-01-21T06:51:23.570Z,99973.53
2023-01-21T06:53:50.154Z,99973.28
2023-01-21T06:56:16.729Z,99974.16
2023-01-21T06:58:43.292Z,99975.78
2023-01-21T07:01:09.940Z,99979.19
2023-01-21T07:03:36.451Z,99973.81
2023-01-21T07:06:03.021Z,99981.50
2023-01-21T07:08:29.643Z,99983.88
2023-01-21T07:10:56.187Z,99990.06
2023-01-21T07:13:23.457Z,100005.00
2023-01-21T07:15:50.325Z,100006.91
2023-01-21T07:18:16.867Z,100008.59
2023-01-21T07:20:43.563Z,100012.19
2023-01-21T07:23:10.086Z,100021.94
2023-01-21T07:25:37.472Z,100031.59
2023-01-21T07:28:04.216Z,100034.16
2023-01-21T07:30:30.756Z,100049.13
2023-01-21T07:32:57.459Z,100052.63
2023-01-21T07:35:24.040Z,100048.09
2023-01-21T07:37:50.619Z,100050.66
2023-01-21T07:40:17.501Z,100054.16
2023-01-21T07:42:44.132Z,100055.78
2023-01-21T07:45:10.866Z,100062.66
2023-01-21T07:47:37.479Z,100053.75
2023-01-21T07:50:08.589Z,100059.91
2023-01-21T07:52:35.546Z,100062.38
2023-01-21T07:55:02.111Z,100062.22
2023-01-21T07:57:28.853Z,100071.97
2023-01-21T07:59:55.788Z,100071.81
2023-01-21T08:02:22.743Z,100081.47
2023-01-21T08:04:49.496Z,100081.47
2023-01-21T08:07:16.277Z,100076.84
2023-01-21T08:09:42.949Z,100074.88
2023-01-21T08:12:10.665Z,100083.72
2023-01-21T08:14:38.622Z,100084.38
2023-01-21T08:17:05.243Z,100090.44
2023-01-21T08:19:31.799Z,100080.63
2023-01-21T08:21:58.441Z,100079.78
2023-01-21T08:24:25.071Z,100082.16
2023-01-21T08:26:51.581Z,100081.13
2023-01-21T08:29:18.159Z,100074.72
2023-01-21T08:31:44.809Z,100077.22
2023-01-21T08:34:11.391Z,100082.41
2023-01-21T08:36:39.029Z,100086.97
2023-01-21T08:39:06.391Z,100095.69
2023-01-21T08:41:33.702Z,100096.34
2023-01-21T08:44:00.704Z,100089.25
2023-01-21T08:46:27.287Z,100095.16
2023-01-21T08:48:53.860Z,100099.38
2023-01-21T08:51:20.472Z,100100.88
2023-01-21T08:53:50.065Z,100099.94
2023-01-21T08:56:17.689Z,100094.56
2023-01-21T08:58:44.794Z,100105.75
2023-01-21T09:01:15.258Z,100106.53
2023-01-21T09:03:42.268Z,100105.41
2023-01-21T09:06:11.344Z,100109.88
2023-01-21T09:08:37.930Z,100110.56
2023-01-21T09:11:06.809Z,100113.91
2023-01-21T09:13:38.634Z,100108.16
2023-01-21T09:16:10.670Z,100109.31
2023-01-21T09:18:37.741Z,100108.88
2023-01-21T09:21:05.877Z,100108.34
2023-01-21T09:23:34.765Z,100106.34
2023-01-21T09:26:01.368Z,100116.91
2023-01-21T09:28:29.767Z,100117.06
2023-01-21T09:31:01.552Z,100113.66
2023-01-21T09:33:30.064Z,100116.47
2023-01-21T09:36:02.583Z,100106.78
2023-01-21T09:38:30.130Z,100117.41
2023-01-21T09:41:04.330Z,100119.31
2023-01-21T09:43:38.790Z,100112.88
2023-01-21T09:46:12.156Z,100113.28
2023-01-21T09:48:43.702Z,100108.19
2023-01-21T09:51:19.841Z,100103.84
2023-01-21T09:53:55.492Z,100104.22
2023-01-21T09:56:28.268Z,100115.44
2023-01-21T09:59:07.036Z,100116.22
2023-01-21T10:01:40.905Z,100112.69
2023-01-21T10:04:33.674Z,100104.72
2023-01-21T10:07:06.006Z,100109.28
2023-01-21T10:09:47.667Z,100114.59
2023-01-21T10:12:19.979Z,100114.59
2023-01-21T10:14:58.635Z,100118.28
2023-01-21T10:17:47.591Z,100115.44
2023-01-21T10:20:24.482Z,100118.09
2023-01-21T10:23:03.541Z,100113.34
2023-01-21T10:25:32.472Z,100114.13
2023-01-21T10:28:04.048Z,100127.22
2023-01-21T10:30:33.718Z,100128.75
2023-01-21T10:33:00.608Z,100123.34
2023-01-21T10:35:52.492Z,100128.84
2023-01-21T10:38:45.299Z,100129.88
2023-01-21T10:41:53.163Z,100126.47
2023-01-21T10:44:27.043Z,100133.66
2023-01-21T10:47:19.643Z,100147.81
2023-01-21T10:49:46.213Z,100142.00
2023-01-21T10:52:45.290Z,100141.19
2023-01-21T10:55:45.470Z,100137.66
2023-01-21T10:58:18.086Z,100137.75
2023-01-21T11:00:48.614Z,100131.50
2023-01-21T11:03:35.132Z,100135.00
2023-01-21T11:06:04.664Z,100127.03
2023-01-21T11:08:31.393Z,100131.38
2023-01-21T11:10:59.466Z,100132.91
2023-01-21T11:13:26.501Z,100122.38
2023-01-21T11:15:56.094Z,100125.91
2023-01-21T11:18:42.874Z,100120.50
2023-01-21T11:21:22.733Z,100122.94
2023-01-21T11:24:20.584Z,100115.84
2023-01-21T11:26:55.925Z,100120.00
2023-01-21T11:29:24.669Z,100114.69
2023-01-21T11:32:01.955Z,100118.22
2023-01-21T11:34:28.856Z,100111.94
2023-01-21T11:37:04.145Z,100101.88
2023-01-21T11:39:37.095Z,100111.47
2023-01-21T11:42:13.692Z,100109.56
2023-01-21T11:44:58.353Z,100104.91
2023-01-21T11:47:40.714Z,100103.78
2023-01-21T11:50:18.200Z,100104.44
2023-01-21T11:52:45.324Z,100101.41
2023-01-21T11:55:23.879Z,100102.84
2023-01-21T11:57:54.858Z,100096.47
2023-01-21T12:00:24.872Z,100106.72
2023-01-21T12:02:57.245Z,100110.03
2023-01-21T12:05:23.787Z,100113.34
2023-01-21T12:07:51.615Z,100111.66
2023-01-21T12:10:35.882Z,100108.91
2023-01-21T12:13:16.879Z,100110.69
2023-01-21T12:16:06.073Z,100109.94
2023-01-21T12:18:54.639Z,100110.22
2023-01-21T12:21:31.592Z,100113.91
2023-01-21T12:24:01.013Z,100127.22
2023-01-21T12:26:53.234Z,100133.50
2023-01-21T12:29:54.984Z,100123.72
2023-01-21T12:32:31.454Z,100127.13
2023-01-21T12:35:09.438Z,100135.78
2023-01-21T12:37:51.288Z,100131.50
2023-01-21T12:40:51.847Z,100139.47
2023-01-21T12:43:27.282Z,100140.53
2023-01-21T12:46:00.283Z,100145.00
2023-01-21T12:48:33.355Z,100150.34
2023-01-21T12:51:07.004Z,100143.31
2023-01-21T12:53:42.473Z,100141.88
2023-01-21T12:56:20.516Z,100146.22
2023-01-21T12:58:55.112Z,100151.00
2023-01-21T13:01:33.969Z,100153.66
2023-01-21T13:04:38.971Z,100161.66
2023-01-21T13:07:11.456Z,100165.34
2023-01-21T13:09:46.923Z,100169.78
2023-01-21T13:12:20.708Z,100166.56
2023-01-21T13:14:55.255Z,100166.66
2023-01-21T13:17:30.876Z,100166.75
2023-01-21T13:19:59.208Z,100172.34
2023-01-21T13:22:25.823Z,100172.53
2023-01-21T13:25:05.448Z,100177.19
2023-01-21T13:27:44.586Z,100177.38
2023-01-21T13:30:26.741Z,100180.97
2023-01-21T13:33:17.944Z,100181.16
2023-01-21T13:36:03.289Z,100180.22
2023-01-21T13:38:46.858Z,100188.09
2023-01-21T13:41:16.823Z,100189.13
2023-01-21T13:44:09.834Z,100188.19
2023-01-21T13:47:09.027Z,100190.28
2023-01-21T13:49:49.452Z,100192.94
2023-01-21T13:52:43.790Z,100194.56
2023-01-21T13:55:31.579Z,100200.72
2023-01-21T13:58:02.630Z,100205.19
2023-01-21T14:00:40.020Z,100206.81
2023-01-21T14:03:19.527Z,100217.31
2023-01-21T14:06:08.484Z,100218.88
2023-01-21T14:08:45.526Z,100214.13
2023-01-21T14:11:23.740Z,100209.31
2023-01-21T14:14:00.988Z,100216.06
2023-01-21T14:16:30.551Z,100220.63
2023-01-21T14:19:18.413Z,100223.44
2023-01-21T14:21:58.635Z,100225.44
2023-01-21T14:24:28.637Z,100222.19
2023-01-21T14:27:16.734Z,100230.44
2023-01-21T14:29:46.964Z,100229.00
2023-01-21T14:32:26.966Z,100232.81
2023-01-21T14:35:13.873Z,100240.94
2023-01-21T14:38:03.269Z,100240.34
2023-01-21T14:40:33.303Z,100246.03
2023-01-21T14:42:59.990Z,100245.28
2023-01-21T14:46:23.633Z,100245.63
2023-01-21T14:49:36.171Z,100251.03
2023-01-21T14:52:03.592Z,100244.75
2023-01-21T14:54:30.193Z,100245.91
2023-01-21T14:57:13.795Z,100247.69
2023-01-21T14:59:46.279Z,100245.47
2023-01-21T15:02:37.328Z,100248.31
2023-01-21T15:05:25.881Z,100246.00
2023-01-21T15:08:23.868Z,100249.69
2023-01-21T15:11:03.280Z,100257.75
2023-01-21T15:13:32.672Z,100255.09
2023-01-21T15:16:04.086Z,100257.91
2023-01-21T15:18:50.902Z,100272.47
2023-01-21T15:21:37.339Z,100272.75
2023-01-21T15:24:23.031Z,100271.88
2023-01-21T15:27:22.386Z,100274.78
2023-01-21T15:29:54.741Z,100278.41
2023-01-21T15:32:28.889Z,100277.03
2023-01-21T15:35:18.774Z,100278.13
2023-01-21T15:37:48.785Z,100287.13
2023-01-21T15:40:23.287Z,100280.94
2023-01-21T15:42:58.849Z,100274.78
2023-01-21T15:46:19.513Z,100288.13
2023-01-21T15:48:54.142Z,100294.31
2023-01-21T15:51:47.929Z,100295.16
2023-01-21T15:54:56.588Z,100297.75
2023-01-21T15:57:34.789Z,100302.19
2023-01-21T16:00:26.858Z,100303.88
2023-01-21T16:03:00.441Z,100309.03
2023-01-21T16:05:50.266Z,100311.63
2023-01-21T16:08:44.931Z,100319.50
2023-01-21T16:11:32.883Z,100310.69
2023-01-21T16:14:30.167Z,100325.84
2023-01-21T16:17:12.010Z,100326.69
2023-01-21T16:19:45.454Z,100326.53
2023-01-21T16:22:15.353Z,100332.78
2023-01-21T16:24:49.860Z,100332.78
2023-01-21T16:27:22.941Z,100344.16
2023-01-21T16:29:58.575Z,100342.34
2023-01-21T16:32:26.900Z,100343.16
2023-01-21T16:34:54.148Z,100344.16
2023-01-21T16:37:24.015Z,100340.75
2023-01-21T16:40:13.999Z,100340.81
2023-01-21T16:42:44.266Z,100346.75
2023-01-21T16:45:21.591Z,100338.84
2023-01-21T16:47:59.427Z,100341.34
2023-01-21T16:50:28.431Z,100342.19
2023-01-21T16:52:57.215Z,100343.22
2023-01-21T16:55:26.895Z,100345.13
2023-01-21T16:57:56.861Z,100355.03
2023-01-21T17:00:31.488Z,100356.97
2023-01-21T17:02:59.847Z,100360.59
2023-01-21T17:05:32.898Z,100359.63
2023-01-21T17:08:03.212Z,100358.78
2023-01-21T17:10:39.963Z,100356.28
2023-01-21T17:13:13.925Z,100360.84
2023-01-21T17:15:43.344Z,100348.44
2023-01-21T17:18:21.125Z,100358.31
2023-01-21T17:20:51.313Z,100357.50
2023-01-21T17:23:22.660Z,100357.75
2023-01-21T17:25:58.667Z,100362.25
2023-01-21T17:28:37.706Z,100351.63
2023-01-21T17:31:10.575Z,100363.06
2023-01-21T17:33:37.489Z,100362.19
2023-01-21T17:36:29.865Z,100356.09
2023-01-21T17:38:56.463Z,100362.44
2023-01-21T17:41:27.627Z,100370.41
2023-01-21T17:43:56.134Z,100371.34
2023-01-21T17:46:24.367Z,100365.16
2023-01-21T17:48:57.949Z,100374.75
2023-01-21T17:51:30.424Z,100376.53
2023-01-21T17:54:00.688Z,100379.19
2023-01-21T17:56:42.613Z,100384.50
2023-01-21T17:59:37.725Z,100378.34
2023-01-21T18:02:12.419Z,100379.38
2023-01-21T18:04:39.429Z,100390.81
2023-01-21T18:07:20.829Z,100391.84
2023-01-21T18:09:47.395Z,100393.59
2023-01-21T18:12:14.209Z,100392.72
2023-01-21T18:14:41.829Z,100398.91
2023-01-21T18:17:17.038Z,100405.91
2023-01-21T18:19:43.590Z,100412.78
2023-01-21T18:22:22.585Z,100413.63
2023-01-21T18:24:49.211Z,100418.94
2023-01-21T18:27:17.325Z,100418.00
2023-01-21T18:29:44.809Z,100424.31
2023-01-21T18:32:14.212Z,100418.09
2023-01-21T18:34:40.903Z,100419.88
2023-01-21T18:37:16.082Z,100415.50
2023-01-21T18:39:42.970Z,100426.28
2023-01-21T18:42:15.280Z,100412.16
2023-01-21T18:44:42.047Z,100419.25
2023-01-21T18:47:14.115Z,100415.91
2023-01-21T18:49:41.177Z,100410.59
2023-01-21T18:52:11.121Z,100416.84
2023-01-21T18:54:37.672Z,100422.22
2023-01-21T18:57:10.164Z,100415.03
2023-01-21T18:59:37.268Z,100422.06
2023-01-21T19:02:06.055Z,100430.03
2023-01-21T19:04:32.682Z,100431.81
2023-01-21T19:07:01.339Z,100434.47
2023-01-21T19:09:27.908Z,100436.03
2023-01-21T19:11:54.463Z,100439.59
2023-01-21T19:14:21.024Z,100450.09
2023-01-21T19:16:47.682Z,100450.84
2023-01-21T19:19:16.904Z,100451.72
2023-01-21T19:21:43.495Z,100465.00
2023-01-21T19:24:12.139Z,100466.63
2023-01-21T19:26:39.185Z,100471.00
2023-01-21T19:29:11.474Z,100469.22
2023-01-21T19:31:38.116Z,100474.53
2023-01-21T19:34:04.720Z,100476.47
2023-01-21T19:36:31.375Z,100477.38
2023-01-21T19:38:59.404Z,100474.75
2023-01-21T19:41:26.001Z,100467.56
2023-01-21T19:43:52.560Z,100470.22
2023-01-21T19:46:19.731Z,100470.31
2023-01-21T19:48:50.261Z,100460.56
2023-01-21T19:51:17.028Z,100463.22
2023-01-21T19:53:43.647Z,100459.75
2023-01-21T19:56:16.031Z,100456.25
2023-01-21T19:58:42.675Z,100466.78
2023-01-21T20:01:09.252Z,100460.69
2023-01-21T20:03:35.845Z,100460.63
2023-01-21T20:06:05.432Z,100457.97
2023-01-21T20:08:33.021Z,100459.00
2023-01-21T20:10:59.590Z,100466.06
2023-01-21T20:13:28.490Z,100464.44
2023-01-21T20:15:55.490Z,100462.59
2023-01-21T20:18:25.147Z,100463.41
2023-01-21T20:20:52.426Z,100466.94
2023-01-21T20:23:20.743Z,100459.94
2023-01-21T20:25:51.153Z,100463.50
2023-01-21T20:28:24.235Z,100462.59
2023-01-21T20:30:52.095Z,100466.00
2023-01-21T20:33:22.157Z,100464.28
2023-01-21T20:35:50.971Z,100472.31
2023-01-21T20:38:23.184Z,100478.66
2023-01-21T20:40:49.770Z,100479.53
2023-01-21T20:43:18.943Z,100478.66
2023-01-21T20:45:48.914Z,100487.47
2023-01-21T20:48:21.121Z,100489.31
2023-01-21T20:50:48.438Z,100489.31
2023-01-21T20:53:15.003Z,100487.69
2023-01-21T20:55:45.033Z,100484.25
2023-01-21T20:58:13.822Z,100481.53
2023-01-21T21:00:41.262Z,100485.13
2023-01-21T21:03:08.081Z,100476.06
2023-01-21T21:05:34.658Z,100468.97
2023-01-21T21:08:01.226Z,100471.69
2023-01-21T21:10:38.351Z,100472.72
2023-01-21T21:13:05.220Z,100483.38
2023-01-21T21:15:34.719Z,100486.03
2023-01-21T21:18:05.578Z,100487.84
2023-01-21T21:20:35.391Z,100472.63
2023-01-21T21:23:02.152Z,100479.03
2023-01-21T21:25:32.011Z,100483.38
2023-01-21T21:27:58.969Z,100490.50
2023-01-21T21:30:32.941Z,100485.13
2023-01-21T21:33:00.873Z,100483.31
2023-01-21T21:35:47.020Z,100488.63
2023-01-21T21:38:23.384Z,100482.38
2023-01-21T21:40:53.131Z,100483.25
2023-01-21T21:43:33.214Z,100487.63
2023-01-21T21:46:30.606Z,100491.22
2023-01-21T21:48:57.240Z,100501.69
2023-01-21T21:51:24.201Z,100499.75
2023-01-21T21:53:51.409Z,100508.47
2023-01-21T21:56:20.508Z,100497.84
2023-01-21T21:58:47.491Z,100501.38
2023-01-21T22:01:17.164Z,100509.47
2023-01-21T22:03:43.868Z,100505.94
2023-01-21T22:06:11.745Z,100498.94
2023-01-21T22:08:40.468Z,100500.50
2023-01-21T22:11:09.402Z,100505.03
2023-01-21T22:13:40.098Z,100500.56
2023-01-21T22:16:10.598Z,100499.63
2023-01-21T22:18:37.266Z,100500.38
2023-01-21T22:21:10.487Z,100485.34
2023-01-21T22:23:37.774Z,100489.81
2023-01-21T22:26:06.800Z,100477.38
2023-01-21T22:28:35.061Z,100478.88
2023-01-21T22:31:06.991Z,100476.31
2023-01-21T22:33:35.099Z,100479.97
2023-01-21T22:36:07.157Z,100473.66
2023-01-21T22:38:34.925Z,100486.84
2023-01-21T22:41:02.097Z,100485.84
2023-01-21T22:43:29.293Z,100477.00
2023-01-21T22:45:57.026Z,100477.88
2023-01-21T22:48:24.044Z,100482.19
2023-01-21T22:50:58.311Z,100469.66
2023-01-21T22:53:26.236Z,100481.16
2023-01-21T22:55:57.098Z,100473.09
2023-01-21T22:58:24.922Z,100467.78
2023-01-21T23:00:52.879Z,100470.53
2023-01-21T23:03:20.804Z,100468.66
2023-01-21T23:05:47.636Z,100477.56
2023-01-21T23:08:15.487Z,100481.84
2023-01-21T23:10:42.688Z,100488.09
2023-01-21T23:13:10.712Z,100488.81
2023-01-21T23:15:42.131Z,100487.88
2023-01-21T23:18:08.781Z,100486.16
2023-01-21T23:20:36.847Z,100491.47
2023-01-21T23:23:04.017Z,100494.13
2023-01-21T23:25:30.607Z,100497.63
2023-01-21T23:27:57.146Z,100496.59
2023-01-21T23:30:23.681Z,100494.75
2023-01-21T23:32:50.276Z,100498.25
2023-01-21T23:35:19.079Z,100489.44
2023-01-21T23:37:45.652Z,100488.38
2023-01-21T23:40:12.439Z,100484.91
2023-01-21T23:42:38.987Z,100483.00
2023-01-21T23:45:05.726Z,100483.06
2023-01-21T23:47:32.298Z,100477.69
2023-01-21T23:49:58.903Z,100481.38
2023-01-21T23:52:25.641Z,100485.66
2023-01-21T23:54:52.245Z,100482.06
2023-01-21T23:57:19.620Z,100492.59
2023-01-21T23:59:46.206Z,100493.41
